Time;durP1;ratioP1;P1;durP2;ratioP2;P2;SDS_P1;SDS_P2;PMS_P1;PMS_P2;Temp;Humidity;BMP_temperature;BMP_pressure;BME280_temperature;BME280_humidity;BME280_pressure;Samples;Min_cycle;Max_cycle;Signal;HPM_P1;HPM_P2
2022/03/16 00:00:08;;;;;;;18.37;14.37;;;;;;;3.79;100.00;96968.97;5031009;28;20662;-72
2022/03/16 00:02:41;;;;;;;16.17;14.47;;;;;;;3.70;100.00;96942.56;5032253;28;20470;-72
2022/03/16 00:05:08;;;;;;;18.87;16.20;;;;;;;3.62;100.00;96966.66;5031923;28;20559;-73
2022/03/16 00:07:35;;;;;;;21.37;15.50;;;;;;;3.71;100.00;96972.91;5024067;28;20989;-73
2022/03/16 00:10:02;;;;;;;16.83;14.97;;;;;;;3.73;100.00;96985.69;5011886;28;20452;-73
2022/03/16 00:12:29;;;;;;;19.90;15.50;;;;;;;3.81;100.00;97000.88;5020590;28;20456;-72
2022/03/16 00:14:56;;;;;;;17.87;15.97;;;;;;;3.76;100.00;96966.88;5018356;28;20463;-72
2022/03/16 00:17:22;;;;;;;21.13;16.10;;;;;;;3.76;100.00;96966.88;5031610;28;20463;-72
2022/03/16 00:19:49;;;;;;;18.27;15.50;;;;;;;3.65;100.00;96981.03;5031489;28;20563;-72
2022/03/16 00:22:16;;;;;;;18.50;15.53;;;;;;;3.72;100.00;96982.31;5039539;28;20433;-73
2022/03/16 00:24:42;;;;;;;17.70;14.40;;;;;;;3.76;100.00;96993.81;5011675;28;20457;-73
2022/03/16 00:27:09;;;;;;;16.10;14.40;;;;;;;3.70;100.00;96975.78;4995515;28;20433;-73
2022/03/16 00:29:36;;;;;;;18.07;14.53;;;;;;;3.75;100.00;96997.50;5011194;28;20446;-72
2022/03/16 00:32:03;;;;;;;17.60;14.60;;;;;;;3.43;100.00;96971.66;5020965;28;20436;-72
2022/03/16 00:34:31;;;;;;;18.20;14.03;;;;;;;3.59;100.00;97006.38;5017775;28;20559;-72
2022/03/16 00:36:59;;;;;;;16.30;14.33;;;;;;;3.38;100.00;96987.34;5031154;28;20871;-72
2022/03/16 00:39:26;;;;;;;18.60;15.10;;;;;;;3.61;100.00;97020.00;5027733;28;20469;-72
2022/03/16 00:41:53;;;;;;;19.37;14.37;;;;;;;3.50;100.00;97021.84;5011459;28;20483;-72
2022/03/16 00:44:21;;;;;;;17.33;14.43;;;;;;;3.34;100.00;96990.72;5023995;28;20855;-73
2022/03/16 00:46:48;;;;;;;18.10;14.90;;;;;;;3.39;100.00;96991.53;5012929;28;20539;-72
2022/03/16 00:49:15;;;;;;;17.27;14.80;;;;;;;3.50;100.00;97000.16;5018014;28;20444;-72
2022/03/16 00:51:41;;;;;;;17.50;15.20;;;;;;;3.46;100.00;97018.16;5020291;28;20540;-72
2022/03/16 00:54:08;;;;;;;17.23;14.13;;;;;;;3.55;100.00;97024.44;5027698;28;20457;-72
2022/03/16 00:56:35;;;;;;;20.80;15.07;;;;;;;3.32;100.00;96990.22;5016673;28;20532;-72
2022/03/16 00:59:02;;;;;;;18.40;14.00;;;;;;;3.30;100.00;96995.72;5043655;28;20503;-73
2022/03/16 01:01:28;;;;;;;23.00;16.60;;;;;;;3.43;100.00;97012.69;5019700;28;20543;-72
2022/03/16 01:03:56;;;;;;;18.60;13.93;;;;;;;3.71;100.00;97042.72;5029185;28;20615;-72
2022/03/16 01:06:23;;;;;;;16.60;14.10;;;;;;;3.73;100.00;97038.00;5031450;28;20507;-72
2022/03/16 01:08:50;;;;;;;14.77;13.27;;;;;;;3.74;100.00;97031.72;5017558;28;20460;-72
2022/03/16 01:11:17;;;;;;;15.97;14.20;;;;;;;3.60;100.00;97043.78;5018558;28;20441;-72
2022/03/16 01:13:44;;;;;;;16.23;13.90;;;;;;;3.52;100.00;97040.66;5017584;28;20522;-72
2022/03/16 01:16:11;;;;;;;18.90;15.60;;;;;;;3.46;100.00;97039.06;5014320;28;20444;-72
2022/03/16 01:18:38;;;;;;;16.97;14.10;;;;;;;3.52;100.00;97027.59;5025073;28;20433;-72
2022/03/16 01:21:06;;;;;;;17.50;13.90;;;;;;;3.58;100.00;97030.19;5010870;28;20464;-72
2022/03/16 01:23:35;;;;;;;18.90;16.90;;;;;;;3.31;100.00;97002.50;5031333;28;20423;-72
2022/03/16 01:26:03;;;;;;;17.60;15.67;;;;;;;3.17;100.00;96989.19;5017382;28;20472;-72
2022/03/16 01:28:30;;;;;;;17.50;14.83;;;;;;;3.44;100.00;96988.91;5014018;28;20551;-72
2022/03/16 01:30:57;;;;;;;20.73;15.70;;;;;;;3.76;100.00;97027.03;5027006;28;20437;-72
2022/03/16 01:33:24;;;;;;;19.40;16.30;;;;;;;3.66;100.00;97021.81;5022890;28;20976;-72
2022/03/16 01:35:51;;;;;;;16.07;14.37;;;;;;;3.90;100.00;97037.72;5025771;28;20531;-72
2022/03/16 01:38:18;;;;;;;16.13;14.27;;;;;;;3.82;100.00;97018.13;5030070;28;20440;-72
2022/03/16 01:40:45;;;;;;;17.93;13.43;;;;;;;3.79;100.00;97031.72;5028478;28;20472;-72
2022/03/16 01:43:12;;;;;;;16.77;14.70;;;;;;;3.71;100.00;97056.56;5035093;28;20871;-72
2022/03/16 01:45:48;;;;;;;20.30;16.50;;;;;;;3.61;100.00;97042.75;5016727;28;20508;-73
2022/03/16 01:48:15;;;;;;;18.53;15.57;;;;;;;3.47;100.00;97040.66;5021947;28;20425;-72
2022/03/16 01:50:44;;;;;;;22.70;16.80;;;;;;;3.25;100.00;97006.19;5026487;28;20933;-72
2022/03/16 01:53:11;;;;;;;20.70;16.20;;;;;;;3.15;100.00;97001.72;5000390;28;20447;-72
2022/03/16 01:55:42;;;;;;;22.93;17.00;;;;;;;3.42;100.00;97038.03;5023758;28;20917;-72
2022/03/16 01:58:10;;;;;;;22.77;18.23;;;;;;;3.39;100.00;97040.41;5010547;28;20441;-73
2022/03/16 02:00:38;;;;;;;23.90;17.90;;;;;;;3.18;100.00;97006.41;5022194;28;20462;-73
2022/03/16 02:03:07;;;;;;;20.63;16.80;;;;;;;3.42;100.00;97048.50;5013780;28;20436;-72
2022/03/16 02:05:34;;;;;;;22.03;18.30;;;;;;;3.54;100.00;97053.47;5016755;28;20458;-73
2022/03/16 02:08:03;;;;;;;20.63;15.97;;;;;;;3.50;100.00;97060.28;5017755;28;20520;-72
2022/03/16 02:10:31;;;;;;;24.30;17.50;;;;;;;3.67;100.00;97054.75;5056584;28;20448;-72
2022/03/16 02:12:58;;;;;;;22.60;16.97;;;;;;;3.67;100.00;97029.41;5022702;28;20962;-72
2022/03/16 02:15:25;;;;;;;22.10;17.87;;;;;;;3.93;100.00;97052.88;5029747;28;20456;-73
2022/03/16 02:17:54;;;;;;;19.80;16.10;;;;;;;3.86;100.00;97053.94;5032263;28;20498;-72
2022/03/16 02:20:22;;;;;;;20.50;15.93;;;;;;;3.58;100.00;97025.75;5000437;28;20469;-72
2022/03/16 02:23:00;;;;;;;22.07;17.07;;;;;;;3.63;100.00;97048.50;5024188;28;20814;-73
2022/03/16 02:25:29;;;;;;;20.20;16.03;;;;;;;3.47;100.00;97019.75;5037712;28;20547;-73
2022/03/16 02:27:57;;;;;;;21.17;15.57;;;;;;;3.29;100.00;97016.88;5023430;28;20487;-72
2022/03/16 02:30:26;;;;;;;21.90;18.50;;;;;;;3.53;100.00;97050.06;5027010;28;20447;-73
2022/03/16 02:32:53;;;;;;;20.90;16.27;;;;;;;3.34;100.00;97035.97;5016545;28;20524;-73
2022/03/16 02:35:20;;;;;;;19.67;15.70;;;;;;;3.30;100.00;97029.69;5049458;28;20475;-72
2022/03/16 02:37:46;;;;;;;20.00;16.37;;;;;;;3.33;100.00;97044.03;5034113;28;20881;-72
2022/03/16 02:40:18;;;;;;;22.80;17.70;;;;;;;3.44;100.00;97053.47;5036057;28;20506;-72
2022/03/16 02:42:45;;;;;;;22.60;15.90;;;;;;;3.32;100.00;97040.66;5033476;28;20438;-72
2022/03/16 02:45:11;;;;;;;25.07;18.43;;;;;;;3.30;100.00;97016.63;5016345;28;20817;-72
2022/03/16 02:47:40;;;;;;;18.87;15.13;;;;;;;3.66;100.00;97063.66;5035000;28;20874;-72
2022/03/16 02:50:07;;;;;;;22.63;17.70;;;;;;;3.32;100.00;97038.03;5008519;28;20432;-72
2022/03/16 02:52:34;;;;;;;19.27;16.97;;;;;;;3.44;100.00;97056.84;5004913;28;20440;-73
2022/03/16 02:55:00;;;;;;;23.47;17.63;;;;;;;3.36;100.00;97059.22;5008422;28;20475;-73
2022/03/16 02:57:27;;;;;;;22.20;16.63;;;;;;;3.35;100.00;97058.44;5016249;28;20495;-72
2022/03/16 02:59:54;;;;;;;22.00;16.80;;;;;;;3.40;100.00;97047.97;5027910;28;20496;-73
2022/03/16 03:02:21;;;;;;;19.23;16.10;;;;;;;3.72;100.00;97092.13;5017815;28;20448;-72
2022/03/16 03:04:47;;;;;;;21.60;16.10;;;;;;;3.72;100.00;97099.19;5027995;28;20488;-72
2022/03/16 03:07:14;;;;;;;21.87;17.10;;;;;;;3.77;100.00;97099.22;5035885;28;20455;-72
2022/03/16 03:09:41;;;;;;;22.17;17.43;;;;;;;3.78;100.00;97103.41;5035639;28;20494;-72
2022/03/16 03:12:08;;;;;;;18.90;16.90;;;;;;;3.69;100.00;97063.13;5037216;28;20435;-72
2022/03/16 03:14:34;;;;;;;22.90;18.53;;;;;;;3.88;100.00;97076.44;5007330;28;21083;-73
2022/03/16 03:17:01;;;;;;;21.07;17.50;;;;;;;3.91;100.00;97102.06;5030621;28;20432;-73
2022/03/16 03:19:28;;;;;;;21.00;17.00;;;;;;;3.70;100.00;97086.38;5003572;28;20473;-72
2022/03/16 03:21:55;;;;;;;20.23;16.57;;;;;;;3.64;100.00;97087.44;5023615;28;20802;-72
2022/03/16 03:24:21;;;;;;;21.63;17.43;;;;;;;3.69;100.00;97097.13;5035950;28;20461;-72
2022/03/16 03:26:48;;;;;;;18.90;16.90;;;;;;;3.58;100.00;97093.72;5016505;28;20444;-72
2022/03/16 03:29:16;;;;;;;21.03;16.77;;;;;;;3.51;100.00;97093.19;5028726;28;20447;-72
2022/03/16 03:31:43;;;;;;;20.50;16.50;;;;;;;3.45;100.00;97089.78;5032654;28;20475;-72
2022/03/16 03:34:10;;;;;;;20.23;17.10;;;;;;;3.28;100.00;97068.34;5003074;28;20552;-73
2022/03/16 03:36:37;;;;;;;17.63;15.43;;;;;;;3.65;100.00;97089.03;5025357;28;20425;-72
2022/03/16 03:39:04;;;;;;;21.33;17.80;;;;;;;3.60;100.00;97101.28;5027125;28;20432;-72
2022/03/16 03:41:31;;;;;;;22.77;16.80;;;;;;;3.41;100.00;97078.28;5028912;28;20471;-72
2022/03/16 03:43:58;;;;;;;20.00;17.20;;;;;;;3.21;100.00;97060.78;5013366;28;20575;-72
2022/03/16 03:46:25;;;;;;;19.40;16.93;;;;;;;3.15;100.00;97077.50;5024895;28;20575;-72
2022/03/16 03:48:52;;;;;;;21.37;16.77;;;;;;;3.11;100.00;97099.19;5028062;28;20456;-72
2022/03/16 03:51:19;;;;;;;24.97;17.97;;;;;;;3.11;100.00;97092.13;5032215;28;20432;-72
2022/03/16 03:53:46;;;;;;;24.00;18.00;;;;;;;3.24;100.00;97098.69;5018917;28;20521;-72
2022/03/16 03:56:13;;;;;;;24.73;16.63;;;;;;;3.54;100.00;97117.00;5020373;28;20458;-72
2022/03/16 03:58:39;;;;;;;22.53;17.43;;;;;;;3.66;100.00;97123.78;5031963;28;20447;-72
2022/03/16 04:01:06;;;;;;;24.20;18.17;;;;;;;3.42;100.00;97116.44;5023929;28;20526;-72
2022/03/16 04:03:33;;;;;;;26.10;18.73;;;;;;;3.23;100.00;97121.41;4997582;28;20448;-72
2022/03/16 04:06:00;;;;;;;19.90;17.80;;;;;;;2.82;100.00;97091.81;5033167;28;20543;-73
2022/03/16 04:08:27;;;;;;;20.17;16.93;;;;;;;2.73;100.00;97088.13;5018477;28;20929;-73
2022/03/16 04:10:54;;;;;;;23.30;16.73;;;;;;;2.89;100.00;97135.94;5022964;28;20445;-72
2022/03/16 04:13:20;;;;;;;22.47;17.23;;;;;;;2.82;100.00;97133.59;4995790;28;20444;-72
2022/03/16 04:15:47;;;;;;;26.37;20.90;;;;;;;2.53;100.00;97121.97;5012090;28;20453;-73
2022/03/16 04:18:14;;;;;;;24.23;19.30;;;;;;;2.70;100.00;97155.72;5026405;28;20492;-72
2022/03/16 04:20:40;;;;;;;26.30;19.60;;;;;;;2.64;100.00;97126.97;5044702;28;20568;-73
2022/03/16 04:23:07;;;;;;;23.77;19.90;;;;;;;2.81;100.00;97150.28;5027793;28;20458;-73
2022/03/16 04:25:34;;;;;;;30.00;21.60;;;;;;;2.72;100.00;97130.16;5031572;28;20448;-72
2022/03/16 04:28:00;;;;;;;25.57;20.07;;;;;;;2.86;100.00;97152.13;5032752;28;20487;-72
2022/03/16 04:30:27;;;;;;;32.60;22.80;;;;;;;2.82;100.00;97159.69;5032868;28;20416;-72
2022/03/16 04:32:54;;;;;;;35.60;22.80;;;;;;;2.59;100.00;97140.00;5015253;28;20490;-72
2022/03/16 04:35:20;;;;;;;32.97;22.00;;;;;;;2.68;100.00;97161.22;5011536;28;20475;-72
2022/03/16 04:37:48;;;;;;;31.47;21.37;;;;;;;2.71;100.00;97171.13;5027843;28;20445;-72
2022/03/16 04:40:15;;;;;;;31.63;22.80;;;;;;;2.67;100.00;97151.78;5000847;28;20579;-72
2022/03/16 04:42:42;;;;;;;29.57;21.57;;;;;;;2.51;100.00;97137.09;5025102;28;20456;-72
2022/03/16 04:45:09;;;;;;;27.70;21.30;;;;;;;2.65;100.00;97157.25;5020531;28;20863;-72
2022/03/16 04:47:36;;;;;;;27.87;21.83;;;;;;;2.30;100.00;97126.56;5028515;28;20818;-72
2022/03/16 04:50:04;;;;;;;33.20;24.70;;;;;;;2.28;100.00;97133.09;5031065;28;20418;-72
2022/03/16 04:52:32;;;;;;;37.07;23.70;;;;;;;2.26;100.00;97143.75;5012738;28;20555;-72
2022/03/16 04:54:59;;;;;;;29.03;20.03;;;;;;;2.46;100.00;97174.41;5010985;28;20461;-73
2022/03/16 04:57:25;;;;;;;27.10;21.10;;;;;;;2.60;100.00;97182.56;5016371;28;20494;-73
2022/03/16 04:59:52;;;;;;;28.13;19.53;;;;;;;2.55;100.00;97164.28;5032235;28;20546;-73
2022/03/16 05:02:19;;;;;;;27.97;21.33;;;;;;;2.55;100.00;97166.88;5025621;28;20900;-72
2022/03/16 05:04:45;;;;;;;26.73;20.00;;;;;;;2.68;100.00;97179.47;5011161;28;20560;-72
2022/03/16 05:07:12;;;;;;;24.93;19.07;;;;;;;2.95;100.00;97205.44;5038369;28;20438;-72
2022/03/16 05:09:39;;;;;;;22.00;18.67;;;;;;;2.76;100.00;97165.91;5004707;28;20455;-72
2022/03/16 05:12:06;;;;;;;23.83;19.57;;;;;;;2.90;100.00;97176.69;5011001;28;20531;-72
2022/03/16 05:14:33;;;;;;;23.23;17.90;;;;;;;2.65;100.00;97203.47;5024686;28;20502;-72
2022/03/16 05:17:00;;;;;;;27.30;19.80;;;;;;;2.27;100.00;97209.75;5018576;28;20523;-72
2022/03/16 05:19:28;;;;;;;22.53;19.00;;;;;;;2.11;100.00;97201.03;5017961;28;20799;-72
2022/03/16 05:21:54;;;;;;;28.00;18.20;;;;;;;2.00;100.00;97194.97;5025105;28;20576;-72
2022/03/16 05:24:22;;;;;;;20.17;16.90;;;;;;;2.40;100.00;97214.53;5025075;28;20445;-72
2022/03/16 05:26:50;;;;;;;30.30;21.77;;;;;;;2.56;100.00;97226.66;4998011;28;20449;-72
2022/03/16 05:29:16;;;;;;;26.43;20.93;;;;;;;2.37;100.00;97178.50;5043862;28;20448;-72
2022/03/16 05:31:43;;;;;;;21.47;18.03;;;;;;;2.34;100.00;97192.06;5023203;28;20432;-72
2022/03/16 05:34:10;;;;;;;132.37;78.03;;;;;;;2.58;100.00;97221.19;5010430;28;20460;-72
2022/03/16 05:36:37;;;;;;;26.93;20.43;;;;;;;2.45;100.00;97205.97;5050569;28;20440;-72
2022/03/16 05:39:04;;;;;;;29.13;21.77;;;;;;;2.25;100.00;97230.09;5016914;28;21011;-72
2022/03/16 05:41:30;;;;;;;24.17;17.47;;;;;;;1.87;100.00;97195.41;5029868;28;20559;-72
2022/03/16 05:43:57;;;;;;;25.60;18.80;;;;;;;1.93;100.00;97236.13;5000025;28;20495;-72
2022/03/16 05:46:24;;;;;;;30.77;21.50;;;;;;;1.91;100.00;97243.41;5026818;28;20453;-72
2022/03/16 05:48:50;;;;;;;34.93;27.10;;;;;;;1.95;100.00;97244.47;4997188;28;20885;-72
2022/03/16 05:51:17;;;;;;;35.00;25.17;;;;;;;1.84;100.00;97224.56;5023320;28;21032;-73
2022/03/16 05:53:44;;;;;;;29.80;22.97;;;;;;;1.78;100.00;97247.19;5023404;28;20871;-72
2022/03/16 05:56:10;;;;;;;26.00;19.57;;;;;;;1.41;100.00;97228.84;5026520;28;20449;-72
2022/03/16 05:58:37;;;;;;;23.30;18.73;;;;;;;1.33;100.00;97233.69;5023632;28;20443;-72
2022/03/16 06:01:03;;;;;;;25.60;19.80;;;;;;;1.26;100.00;97225.28;5013488;28;20467;-72
2022/03/16 06:03:30;;;;;;;38.40;18.57;;;;;;;1.35;100.00;97232.44;5029704;28;20453;-72
2022/03/16 06:05:57;;;;;;;29.13;20.70;;;;;;;1.57;100.00;97250.63;5031207;28;20428;-72
2022/03/16 06:08:24;;;;;;;32.53;22.90;;;;;;;1.41;100.00;97230.66;5029863;28;20446;-72
2022/03/16 06:10:50;;;;;;;40.67;27.73;;;;;;;1.48;100.00;97233.88;5023279;28;20551;-72
2022/03/16 06:13:17;;;;;;;34.13;26.70;;;;;;;1.44;100.00;97220.53;4994917;28;20518;-72
2022/03/16 06:15:44;;;;;;;34.63;26.50;;;;;;;1.43;100.00;97223.38;5021899;28;20449;-72
2022/03/16 06:18:12;;;;;;;36.43;25.80;;;;;;;1.88;100.00;97269.19;5026349;28;20436;-71
2022/03/16 06:20:39;;;;;;;35.27;25.60;;;;;;;1.73;100.00;97248.94;5017910;28;20495;-72
2022/03/16 06:23:06;;;;;;;37.77;28.10;;;;;;;1.72;100.00;97240.34;5016439;28;20540;-72
2022/03/16 06:25:38;;;;;;;41.53;26.43;;;;;;;2.07;100.00;97278.22;5029740;28;20884;-72
2022/03/16 06:28:04;;;;;;;29.43;24.47;;;;;;;2.05;100.00;97281.06;5030856;28;20515;-72
2022/03/16 06:30:31;;;;;;;37.03;25.40;;;;;;;2.17;100.00;97261.88;5029580;28;20445;-72
2022/03/16 06:32:58;;;;;;;30.07;23.80;;;;;;;2.62;100.00;97283.06;5013608;28;20461;-73
2022/03/16 06:35:24;;;;;;;25.10;19.83;;;;;;;2.61;100.00;97249.38;5015821;28;20497;-72
2022/03/16 06:37:51;;;;;;;34.60;25.37;;;;;;;2.73;100.00;97285.75;4997145;28;20551;-73
2022/03/16 06:40:18;;;;;;;31.07;25.40;;;;;;;2.61;100.00;97281.50;5029481;28;20812;-72
2022/03/16 06:42:50;;;;;;;30.43;23.70;;;;;;;2.56;100.00;97293.75;5025542;28;20471;-72
2022/03/16 06:45:18;;;;;;;31.83;25.67;;;;;;;2.50;100.00;97271.25;5026320;28;20454;-73
2022/03/16 06:47:44;;;;;;;32.13;25.50;;;;;;;2.79;100.00;97301.19;5011636;28;20428;-72
2022/03/16 06:50:12;;;;;;;36.00;28.27;;;;;;;2.80;100.00;97299.38;5029832;28;21187;-72
2022/03/16 06:52:39;;;;;;;37.20;26.90;;;;;;;2.64;100.00;97261.94;5028589;28;20436;-73
2022/03/16 06:55:10;;;;;;;33.57;24.20;;;;;;;2.84;100.00;97293.41;5023567;28;20470;-73
2022/03/16 06:57:37;;;;;;;33.30;23.50;;;;;;;2.97;100.00;97298.19;5017545;28;20464;-72
2022/03/16 07:00:06;;;;;;;31.37;26.43;;;;;;;3.07;100.00;97301.88;5033441;28;20425;-73
2022/03/16 07:02:51;;;;;;;40.30;26.63;;;;;;;2.89;100.00;97267.31;5024994;28;20432;-73
2022/03/16 07:05:18;;;;;;;34.70;26.13;;;;;;;3.12;100.00;97278.41;5027885;28;20495;-73
2022/03/16 07:07:48;;;;;;;37.23;27.67;;;;;;;3.25;100.00;97267.47;5033570;28;20461;-73
2022/03/16 07:10:15;;;;;;;41.00;29.27;;;;;;;3.27;100.00;97252.31;5034588;28;20443;-73
2022/03/16 07:12:42;;;;;;;43.37;27.07;;;;;;;3.61;100.00;97286.69;5033196;28;20444;-73
2022/03/16 07:15:09;;;;;;;38.13;24.90;;;;;;;3.67;100.00;97269.97;5033632;28;20555;-74
2022/03/16 07:17:36;;;;;;;35.47;24.80;;;;;;;4.01;100.00;97301.69;5033875;28;20476;-73
2022/03/16 07:20:04;;;;;;;35.33;25.13;;;;;;;4.28;100.00;97298.84;5017769;28;20461;-74
2022/03/16 07:22:30;;;;;;;29.93;21.53;;;;;;;4.24;100.00;97282.06;5024449;28;20445;-73
2022/03/16 07:25:17;;;;;;;28.90;22.40;;;;;;;4.34;100.00;97295.16;5034469;28;20444;-74
2022/03/16 07:27:44;;;;;;;28.43;21.77;;;;;;;4.54;100.00;97288.34;5032954;28;20471;-74
2022/03/16 07:30:11;;;;;;;32.23;20.90;;;;;;;4.80;100.00;97308.22;5033035;28;20493;-73
2022/03/16 07:32:41;;;;;;;31.17;22.37;;;;;;;4.97;100.00;97315.81;5031895;28;20476;-74
2022/03/16 07:35:09;;;;;;;30.63;22.30;;;;;;;5.30;100.00;97323.06;5013443;28;20503;-74
2022/03/16 07:37:37;;;;;;;27.40;22.73;;;;;;;5.59;100.00;97327.66;5031320;28;20451;-74
2022/03/16 07:40:05;;;;;;;25.30;20.03;;;;;;;5.63;100.00;97326.88;5032877;28;20432;-73
2022/03/16 07:42:34;;;;;;;25.70;20.50;;;;;;;5.58;100.00;97332.13;5034014;28;20945;-73
2022/03/16 07:45:02;;;;;;;30.57;21.23;;;;;;;5.50;100.00;97326.66;5032882;28;20781;-73
2022/03/16 07:47:29;;;;;;;27.37;20.00;;;;;;;5.38;100.00;97316.47;5016189;28;20885;-74
2022/03/16 07:50:05;;;;;;;24.80;19.07;;;;;;;5.56;100.00;97339.47;5032529;28;20440;-73
2022/03/16 07:52:32;;;;;;;27.27;21.67;;;;;;;5.53;100.00;97344.50;5016319;28;20878;-74
2022/03/16 07:54:59;;;;;;;30.73;21.37;;;;;;;5.26;100.00;97335.13;5034724;28;20531;-74
2022/03/16 07:57:25;;;;;;;28.37;21.17;;;;;;;5.37;100.00;97332.50;5019581;28;20448;-74
2022/03/16 07:59:54;;;;;;;29.53;21.50;;;;;;;5.26;100.00;97321.25;5034208;28;20456;-74
2022/03/16 08:02:22;;;;;;;35.43;23.33;;;;;;;5.40;100.00;97345.06;5019326;28;20472;-74
2022/03/16 08:04:48;;;;;;;31.77;22.47;;;;;;;5.25;100.00;97336.19;5033615;28;20506;-74
2022/03/16 08:07:15;;;;;;;48.80;27.30;;;;;;;5.21;100.00;97327.28;5032346;28;20448;-74
2022/03/16 08:09:42;;;;;;;40.70;26.43;;;;;;;5.23;100.00;97321.78;5032045;28;21022;-74
2022/03/16 08:12:09;;;;;;;33.97;23.90;;;;;;;5.57;100.00;97338.44;5027329;28;20429;-74
2022/03/16 08:14:35;;;;;;;37.00;22.57;;;;;;;5.53;100.00;97334.78;5026503;28;20456;-74
2022/03/16 08:17:02;;;;;;;28.77;22.10;;;;;;;5.51;100.00;97325.63;5031767;28;20447;-74
2022/03/16 08:19:29;;;;;;;32.60;24.40;;;;;;;5.40;100.00;97326.69;5032266;28;20445;-74
2022/03/16 08:21:55;;;;;;;32.67;23.23;;;;;;;5.34;100.00;97316.25;5033261;28;20460;-74
2022/03/16 08:24:22;;;;;;;33.17;23.00;;;;;;;5.65;100.00;97363.34;5031909;28;21018;-74
2022/03/16 08:27:09;;;;;;;31.00;22.60;;;;;;;5.24;100.00;97320.72;5032304;28;20433;-74
2022/03/16 08:29:35;;;;;;;26.40;20.90;;;;;;;5.45;100.00;97340.56;5031940;28;20432;-74
2022/03/16 08:32:03;;;;;;;32.97;22.33;;;;;;;5.85;100.00;97360.59;5031969;28;20474;-74
2022/03/16 08:34:30;;;;;;;32.47;23.43;;;;;;;5.87;100.00;97352.47;5019651;28;20891;-74
2022/03/16 08:37:00;;;;;;;33.40;21.70;;;;;;;5.92;100.00;97355.91;5031777;28;20445;-74
2022/03/16 08:39:29;;;;;;;31.20;22.60;;;;;;;5.96;100.00;97345.63;5032957;28;20432;-74
2022/03/16 08:41:55;;;;;;;28.43;23.13;;;;;;;6.06;100.00;97363.19;5031774;28;20459;-74
2022/03/16 08:44:23;;;;;;;35.73;25.13;;;;;;;6.16;100.00;97363.13;5027561;28;20462;-74
2022/03/16 08:46:53;;;;;;;36.00;25.30;;;;;;;6.06;100.00;97337.72;5012887;28;20860;-74
2022/03/16 08:49:21;;;;;;;28.40;22.60;;;;;;;6.25;100.00;97369.34;5031180;28;20523;-74
2022/03/16 08:51:48;;;;;;;32.10;22.90;;;;;;;6.37;100.00;97359.31;5031466;28;20438;-74
2022/03/16 08:54:14;;;;;;;34.07;22.33;;;;;;;6.48;100.00;97367.91;5031462;28;20492;-74
2022/03/16 08:56:41;;;;;;;38.10;23.20;;;;;;;6.32;100.00;97340.97;5032947;28;20790;-74
2022/03/16 08:59:08;;;;;;;29.00;23.77;;;;;;;6.54;100.00;97369.41;5031311;28;20535;-74
2022/03/16 09:01:34;;;;;;;32.43;24.80;;;;;;;6.45;100.00;97374.50;5031452;28;20461;-74
2022/03/16 09:04:02;;;;;;;31.30;22.43;;;;;;;6.59;100.00;97382.53;5031193;28;20464;-74
2022/03/16 09:06:29;;;;;;;33.73;23.23;;;;;;;6.49;100.00;97388.63;5031193;28;20463;-74
2022/03/16 09:08:56;;;;;;;30.90;24.23;;;;;;;6.46;100.00;97391.03;5031471;28;20478;-74
2022/03/16 09:11:23;;;;;;;34.70;22.83;;;;;;;6.33;100.00;97374.03;5018603;28;21050;-74
2022/03/16 09:13:49;;;;;;;34.80;24.23;;;;;;;6.47;100.00;97380.25;5031919;28;20448;-74
2022/03/16 09:16:17;;;;;;;34.93;23.97;;;;;;;6.55;100.00;97384.16;5031258;28;20871;-74
2022/03/16 09:18:47;;;;;;;28.13;22.00;;;;;;;6.65;100.00;97378.03;5031405;28;20475;-74
2022/03/16 09:21:13;;;;;;;34.17;23.67;;;;;;;6.69;100.00;97368.53;5018067;28;20577;-74
2022/03/16 09:23:40;;;;;;;32.20;23.23;;;;;;;7.00;100.00;97392.72;5033147;28;20432;-74
2022/03/16 09:26:07;;;;;;;28.93;22.40;;;;;;;7.25;100.00;97381.97;5033309;28;20871;-74
2022/03/16 09:28:33;;;;;;;30.90;22.20;;;;;;;6.98;100.00;97350.16;5033861;28;20875;-73
2022/03/16 09:31:00;;;;;;;34.70;23.93;;;;;;;7.24;100.00;97364.63;5040105;28;20479;-73
2022/03/16 09:33:30;;;;;;;33.40;25.13;;;;;;;7.06;100.00;97347.69;5016264;28;20869;-73
2022/03/16 09:35:57;;;;;;;33.20;23.50;;;;;;;7.25;100.00;97381.19;5033909;28;20428;-74
2022/03/16 09:38:24;;;;;;;32.27;23.67;;;;;;;7.25;100.00;97381.97;5011815;28;20531;-74
2022/03/16 09:40:57;;;;;;;29.00;25.00;;;;;;;7.11;100.00;97368.69;5027742;28;20483;-74
2022/03/16 09:43:24;;;;;;;32.93;24.53;;;;;;;7.32;100.00;97368.47;5021462;28;20527;-74
2022/03/16 09:45:56;;;;;;;29.00;22.23;;;;;;;7.43;100.00;97382.31;5028259;28;20507;-74
2022/03/16 09:48:26;;;;;;;33.27;26.70;;;;;;;7.46;100.00;97381.75;5053398;28;20440;-74
2022/03/16 09:50:54;;;;;;;33.63;24.40;;;;;;;7.41;100.00;97386.00;5010885;28;20437;-73
2022/03/16 09:53:26;;;;;;;32.07;23.53;;;;;;;7.36;100.00;97359.78;5024268;28;20966;-73
2022/03/16 09:55:56;;;;;;;37.27;25.10;;;;;;;7.42;100.00;97381.53;5012692;28;20417;-74
2022/03/16 09:58:23;;;;;;;27.23;21.10;;;;;;;7.47;100.00;97363.06;5053044;28;20434;-74
2022/03/16 10:00:52;;;;;;;24.83;18.90;;;;;;;7.38;100.00;97344.50;5030328;28;20547;-72
2022/03/16 10:03:28;;;;;;;33.57;23.50;;;;;;;7.56;100.00;97371.91;5030536;28;20439;-72
2022/03/16 10:05:57;;;;;;;28.73;22.83;;;;;;;7.62;100.00;97347.13;5030315;28;20449;-72
2022/03/16 10:08:32;;;;;;;28.10;21.73;;;;;;;7.72;100.00;97354.88;5030455;28;20874;-72
2022/03/16 10:14:04;;;;;;;32.13;22.60;;;;;;;8.02;100.00;97363.47;5030049;28;20464;-72
2022/03/16 10:17:43;;;;;;;31.33;23.77;;;;;;;8.13;100.00;97370.16;5030222;28;20445;-74
2022/03/16 10:19:22;;;;;;;30.87;23.17;;;;;;;8.07;100.00;97344.19;5030426;28;20808;-73
2022/03/16 10:21:59;;;;;;;27.67;20.37;;;;;;;8.13;100.00;97353.56;5012175;28;20453;-74
2022/03/16 10:24:30;;;;;;;26.97;20.60;;;;;;;8.09;100.00;97353.34;5025740;28;20481;-74
2022/03/16 10:27:00;;;;;;;27.70;23.03;;;;;;;8.43;100.00;97384.03;5030196;28;20453;-74
2022/03/16 10:29:31;;;;;;;32.13;25.63;;;;;;;8.64;100.00;97369.44;5030027;28;20501;-73
2022/03/16 10:32:02;;;;;;;25.07;21.70;;;;;;;8.89;100.00;97374.31;5030293;28;20441;-74
2022/03/16 10:34:29;;;;;;;26.30;20.93;;;;;;;9.02;100.00;97362.25;5017256;28;20559;-74
2022/03/16 10:37:09;;;;;;;27.43;21.00;;;;;;;8.86;100.00;97377.53;5029980;28;20860;-74
2022/03/16 10:39:37;;;;;;;27.27;21.20;;;;;;;9.00;100.00;97374.16;5033934;28;20543;-74
2022/03/16 10:48:13;;;;;;;29.03;23.20;;;;;;;8.69;100.00;97373.88;5034382;28;20527;-73
2022/03/16 10:50:44;;;;;;;29.23;22.20;;;;;;;8.73;100.00;97373.00;5035317;28;20432;-74
2022/03/16 10:53:14;;;;;;;33.63;23.50;;;;;;;8.63;100.00;97369.75;5033887;28;20523;-74
2022/03/16 10:55:42;;;;;;;34.73;27.43;;;;;;;8.35;100.00;97330.09;5016571;28;20867;-74
2022/03/16 10:58:09;;;;;;;25.77;21.20;;;;;;;8.65;100.00;97376.28;5025641;28;20520;-74
2022/03/16 11:00:37;;;;;;;29.20;20.60;;;;;;;8.67;100.00;97352.28;5016720;28;20440;-74
2022/03/16 11:03:10;;;;;;;23.77;19.80;;;;;;;8.92;100.00;97370.31;5013742;28;20462;-74
2022/03/16 11:05:37;;;;;;;49.37;34.70;;;;;;;8.58;100.00;97360.06;5018858;28;20457;-74
2022/03/16 11:08:07;;;;;;;27.53;20.47;;;;;;;8.75;100.00;97375.34;5034923;28;20455;-74
2022/03/16 11:10:36;;;;;;;31.23;25.63;;;;;;;8.41;100.00;97360.56;5033277;28;20960;-74
2022/03/16 11:15:51;;;;;;;26.20;21.80;;;;;;;8.97;100.00;97367.63;5036173;28;20457;-73
2022/03/16 11:18:18;;;;;;;22.63;20.13;;;;;;;8.95;100.00;97368.94;5049771;28;20440;-74
2022/03/16 11:20:51;;;;;;;24.70;18.07;;;;;;;9.01;100.00;97355.41;5033319;28;20456;-72
2022/03/16 11:26:37;;;;;;;23.30;20.43;;;;;;;9.25;100.00;97334.16;5032984;28;20440;-72
2022/03/16 11:29:38;;;;;;;22.77;18.63;;;;;;;9.31;100.00;97351.44;5033235;28;21039;-72
2022/03/16 11:32:14;;;;;;;24.10;19.47;;;;;;;9.35;100.00;97312.84;5012894;28;20494;-72
2022/03/16 11:35:00;;;;;;;19.67;15.30;;;;;;;9.79;100.00;97348.41;5010698;28;20468;-72